Time;durP1;ratioP1;P1;durP2;ratioP2;P2;SDS_P1;SDS_P2;PMS_P1;PMS_P2;Temp;Humidity;BMP_temperature;BMP_pressure;BME280_temperature;BME280_humidity;BME280_pressure;Samples;Min_cycle;Max_cycle;Signal;HPM_P1;HPM_P2
2021/07/23 00:02:06;;;;;;;4.45;3.72;;;;;;;19.38;53.22;101861.06;6118135;28;20236;-50
2021/07/23 00:05:27;;;;;;;3.63;3.30;;;;;;;19.23;53.53;101858.88;6118075;28;20242;-53
2021/07/23 00:08:48;;;;;;;6.00;4.45;;;;;;;19.37;53.44;101866.44;6128279;28;20314;-46
2021/07/23 00:12:09;;;;;;;4.10;3.70;;;;;;;19.08;54.27;101862.84;6111595;28;20610;-50
2021/07/23 00:15:32;;;;;;;4.57;3.72;;;;;;;19.28;53.41;101862.25;6129460;28;20230;-49
2021/07/23 00:18:53;;;;;;;4.05;3.63;;;;;;;19.30;53.48;101860.44;6132270;28;20247;-52
2021/07/23 00:22:14;;;;;;;4.72;3.65;;;;;;;19.11;53.96;101857.44;6127729;28;20235;-51
2021/07/23 00:25:35;;;;;;;7.28;4.47;;;;;;;19.21;53.82;101855.41;6120961;28;20525;-52
2021/07/23 00:28:56;;;;;;;7.68;5.00;;;;;;;19.43;52.71;101853.03;6121515;28;20232;-50
2021/07/23 00:32:19;;;;;;;4.30;3.78;;;;;;;19.12;53.93;101850.41;6124960;28;20258;-51
2021/07/23 00:35:39;;;;;;;5.28;3.80;;;;;;;19.61;52.71;101854.25;6120447;28;20239;-49
2021/07/23 00:39:00;;;;;;;5.10;4.38;;;;;;;19.43;52.81;101853.88;6121933;28;20235;-48
2021/07/23 00:42:21;;;;;;;4.72;4.22;;;;;;;19.33;53.21;101851.56;6132760;28;20609;-54
2021/07/23 00:45:42;;;;;;;5.68;4.00;;;;;;;19.61;52.45;101848.97;6130702;28;20243;-49
2021/07/23 00:49:05;;;;;;;4.63;4.22;;;;;;;19.54;52.60;101857.97;6114728;28;20403;-51
2021/07/23 00:52:28;;;;;;;6.22;4.55;;;;;;;19.60;52.22;101850.75;6122391;28;20231;-50
2021/07/23 00:55:54;;;;;;;4.68;4.28;;;;;;;19.52;52.41;101851.88;6126422;28;20239;-52
2021/07/23 00:59:16;;;;;;;5.13;4.63;;;;;;;19.43;53.03;101847.75;6123345;28;20238;-51
2021/07/23 01:02:38;;;;;;;4.75;4.28;;;;;;;19.42;52.51;101841.56;6140595;28;20318;-49
2021/07/23 01:06:02;;;;;;;4.97;4.47;;;;;;;19.50;52.40;101832.56;6128953;28;20220;-51
2021/07/23 01:09:24;;;;;;;4.32;3.92;;;;;;;19.46;52.47;101839.72;6124508;28;20235;-50
2021/07/23 01:12:46;;;;;;;4.70;4.15;;;;;;;19.19;53.42;101844.03;6113242;28;20661;-53
2021/07/23 01:16:07;;;;;;;4.78;4.30;;;;;;;19.32;53.18;101840.13;6122914;28;21988;-51
2021/07/23 01:19:33;;;;;;;4.88;4.43;;;;;;;19.40;53.19;101843.41;6124053;28;20243;-51
2021/07/23 01:22:57;;;;;;;4.78;4.38;;;;;;;19.30;53.42;101834.03;6125284;28;20232;-49
2021/07/23 01:26:22;;;;;;;4.25;3.40;;;;;;;19.37;53.29;101838.22;6122998;28;20243;-53
2021/07/23 01:29:44;;;;;;;7.70;3.97;;;;;;;19.51;52.88;101842.25;6125212;28;20323;-54
2021/07/23 01:33:06;;;;;;;6.78;4.40;;;;;;;19.44;53.10;101836.25;6127280;28;20240;-50
2021/07/23 01:36:28;;;;;;;4.60;3.75;;;;;;;19.50;52.69;101840.50;6122971;28;20255;-51
2021/07/23 01:39:50;;;;;;;6.10;4.82;;;;;;;19.15;54.41;101831.84;6124672;28;20650;-48
2021/07/23 01:43:14;;;;;;;5.38;4.88;;;;;;;19.45;54.43;101830.94;6131799;28;20224;-51
2021/07/23 01:46:35;;;;;;;8.18;4.80;;;;;;;19.27;55.52;101831.50;6119104;28;20231;-48
2021/07/23 01:50:01;;;;;;;4.85;4.38;;;;;;;19.42;55.38;101825.72;6125038;28;20322;-50
2021/07/23 01:53:23;;;;;;;5.82;4.93;;;;;;;19.34;55.75;101833.03;6120523;28;20314;-50
2021/07/23 01:56:48;;;;;;;9.73;4.82;;;;;;;19.07;57.26;101827.63;6124345;28;20228;-51
2021/07/23 02:00:15;;;;;;;5.72;5.03;;;;;;;18.98;58.00;101827.91;6135973;28;20227;-53
2021/07/23 02:03:43;;;;;;;5.13;4.72;;;;;;;18.97;58.51;101828.81;6125554;28;20508;-53
2021/07/23 02:07:04;;;;;;;8.50;5.97;;;;;;;18.81;59.88;101832.78;6128534;28;20232;-51
2021/07/23 02:10:26;;;;;;;6.40;5.13;;;;;;;18.95;59.56;101825.34;6123604;28;20251;-51
2021/07/23 02:13:47;;;;;;;5.00;4.50;;;;;;;18.83;60.10;101831.84;6117419;28;20330;-53
2021/07/23 02:17:13;;;;;;;6.15;5.53;;;;;;;18.96;59.84;101824.44;6125298;28;20497;-49
2021/07/23 02:20:34;;;;;;;5.68;5.07;;;;;;;19.07;59.58;101817.06;6121117;28;20243;-52
2021/07/23 02:23:57;;;;;;;4.38;4.03;;;;;;;18.56;61.86;101825.50;6123568;28;20235;-49
2021/07/23 02:27:19;;;;;;;6.03;4.40;;;;;;;18.63;61.86;101829.72;6123631;28;20220;-53
2021/07/23 02:30:46;;;;;;;4.93;4.15;;;;;;;18.44;62.65;101823.19;6121318;28;20236;-50
2021/07/23 02:34:19;;;;;;;5.15;4.43;;;;;;;18.59;62.47;101822.78;6122127;28;20485;-50
2021/07/23 02:37:40;;;;;;;4.57;4.18;;;;;;;18.79;61.74;101819.59;6126886;28;21812;-50
2021/07/23 02:41:01;;;;;;;5.70;3.67;;;;;;;18.61;62.89;101810.44;6130185;28;20331;-46
2021/07/23 02:44:22;;;;;;;5.25;4.60;;;;;;;18.72;62.43;101812.75;6128963;28;20231;-51
2021/07/23 02:47:43;;;;;;;5.47;3.42;;;;;;;18.62;63.11;101808.66;6132844;28;20602;-49
2021/07/23 02:51:06;;;;;;;4.72;3.67;;;;;;;18.91;62.00;101810.50;6126253;28;20259;-52
2021/07/23 02:54:30;;;;;;;4.60;4.00;;;;;;;18.71;63.23;101805.75;6120197;28;20235;-48
2021/07/23 02:57:52;;;;;;;10.02;6.53;;;;;;;18.85;62.91;101811.53;6126544;28;20240;-50
2021/07/23 03:01:18;;;;;;;8.82;7.32;;;;;;;19.03;62.15;101806.66;6113362;28;20236;-51
2021/07/23 03:04:40;;;;;;;5.32;4.75;;;;;;;18.43;64.25;101810.91;6133525;28;20232;-52
2021/07/23 03:08:02;;;;;;;6.30;4.85;;;;;;;18.76;63.22;101809.13;6119385;28;20515;-49
2021/07/23 03:11:35;;;;;;;5.68;4.00;;;;;;;18.83;63.08;101812.50;6119351;28;20378;-53
2021/07/23 03:15:01;;;;;;;7.25;4.65;;;;;;;18.87;62.71;101808.88;6121052;28;20534;-51
2021/07/23 03:18:23;;;;;;;5.80;5.20;;;;;;;18.47;64.50;101809.91;6123409;28;20613;-49
2021/07/23 03:21:45;;;;;;;6.28;5.55;;;;;;;18.97;62.32;101805.06;6119882;28;20236;-54
2021/07/23 03:25:11;;;;;;;6.35;4.78;;;;;;;19.08;62.19;101800.34;6134640;28;20608;-52
2021/07/23 03:28:58;;;;;;;5.00;4.40;;;;;;;18.98;62.32;101803.28;6130810;28;20238;-54
2021/07/23 03:32:24;;;;;;;6.80;4.82;;;;;;;18.73;62.62;101803.06;6121533;28;20235;-50
2021/07/23 03:35:45;;;;;;;5.80;4.18;;;;;;;18.93;62.14;101797.28;6124140;28;20235;-51
2021/07/23 03:39:10;;;;;;;5.97;5.43;;;;;;;18.73;63.09;101792.50;6126974;28;20231;-49
2021/07/23 03:42:33;;;;;;;8.40;7.47;;;;;;;18.82;62.87;101794.94;6125033;28;20272;-49
2021/07/23 03:46:10;;;;;;;8.15;7.35;;;;;;;18.85;62.65;101797.50;6126688;28;20232;-48
2021/07/23 03:49:37;;;;;;;7.07;5.68;;;;;;;18.50;63.53;101789.59;6121192;28;21072;-48
2021/07/23 03:53:00;;;;;;;8.98;7.63;;;;;;;18.92;62.26;101792.88;6131684;28;20559;-52
2021/07/23 03:56:39;;;;;;;6.97;5.57;;;;;;;18.95;62.04;101792.81;6125576;28;20235;-52
2021/07/23 04:00:07;;;;;;;10.07;9.00;;;;;;;18.62;62.97;101795.44;6140964;28;20925;-52
2021/07/23 04:03:28;;;;;;;7.63;6.10;;;;;;;18.70;62.88;101788.19;6123179;28;20239;-49
2021/07/23 04:06:55;;;;;;;7.05;6.45;;;;;;;18.98;61.96;101792.72;6130139;28;20235;-52
2021/07/23 04:10:17;;;;;;;8.45;6.93;;;;;;;19.13;61.61;101792.28;6121779;28;20756;-50
2021/07/23 04:13:38;;;;;;;5.85;5.28;;;;;;;19.14;60.72;101799.28;6118195;28;20630;-51
2021/07/23 04:17:00;;;;;;;6.05;5.07;;;;;;;18.97;61.70;101796.28;6133495;28;20235;-52
2021/07/23 04:20:22;;;;;;;9.35;5.97;;;;;;;18.66;62.88;101803.22;6118386;28;20247;-49
2021/07/23 04:23:45;;;;;;;7.05;6.15;;;;;;;18.92;62.47;101804.34;6136396;28;20231;-52
2021/07/23 04:27:06;;;;;;;7.53;6.10;;;;;;;18.62;62.85;101809.50;6117494;28;20597;-52
2021/07/23 04:30:28;;;;;;;13.20;11.98;;;;;;;18.63;62.84;101798.06;6115517;28;20581;-51
2021/07/23 04:34:23;;;;;;;9.02;8.10;;;;;;;18.58;63.21;101797.31;6128989;28;20429;-53
2021/07/23 04:38:01;;;;;;;25.05;22.88;;;;;;;19.02;61.74;101792.59;6130084;28;20323;-49
2021/07/23 04:41:32;;;;;;;12.98;11.60;;;;;;;18.94;61.94;101799.88;6119780;28;20242;-48
2021/07/23 04:44:53;;;;;;;8.18;7.28;;;;;;;18.96;61.51;101800.69;6120727;28;20322;-51
2021/07/23 04:48:14;;;;;;;6.72;5.55;;;;;;;19.02;61.57;101800.53;6129101;28;20243;-50
2021/07/23 04:51:52;;;;;;;7.15;6.15;;;;;;;19.18;60.39;101800.06;6121895;28;20239;-53
2021/07/23 04:55:36;;;;;;;7.53;5.82;;;;;;;18.86;60.67;101804.47;6101979;28;20232;-49
2021/07/23 04:59:04;;;;;;;8.15;5.55;;;;;;;18.81;60.94;101799.34;6122170;28;20243;-47
2021/07/23 05:02:26;;;;;;;6.72;5.82;;;;;;;19.34;59.49;101803.13;6118966;28;20318;-52
2021/07/23 05:05:48;;;;;;;6.88;6.13;;;;;;;19.41;59.32;101809.94;6121241;28;20255;-51
2021/07/23 05:09:11;;;;;;;6.18;5.60;;;;;;;19.20;58.61;101804.38;6115358;28;20231;-52
2021/07/23 05:12:38;;;;;;;12.73;5.93;;;;;;;19.04;59.49;101803.97;6119744;28;20232;-50
2021/07/23 05:15:59;;;;;;;6.00;4.97;;;;;;;19.33;58.47;101804.91;6123965;28;20256;-53
2021/07/23 05:19:20;;;;;;;6.88;5.32;;;;;;;19.38;58.15;101800.31;6124223;28;20239;-52
2021/07/23 05:22:41;;;;;;;8.20;7.40;;;;;;;19.50;57.81;101800.88;6121391;28;20778;-53
2021/07/23 05:26:05;;;;;;;5.50;5.03;;;;;;;19.54;57.81;101799.84;6126647;28;20236;-51
2021/07/23 05:29:26;;;;;;;10.38;9.35;;;;;;;19.67;57.66;101801.22;6131526;28;20314;-54
2021/07/23 05:32:46;;;;;;;5.32;4.82;;;;;;;19.44;56.90;101805.44;6118402;28;20243;-53
2021/07/23 05:36:07;;;;;;;4.55;4.05;;;;;;;18.98;57.84;101798.00;6133072;28;20483;-57
2021/07/23 05:39:28;;;;;;;4.80;4.35;;;;;;;19.15;57.47;101802.78;6110620;28;20334;-54
2021/07/23 05:42:53;;;;;;;5.32;4.82;;;;;;;19.55;56.07;101801.59;6111521;28;20244;-52
2021/07/23 05:46:15;;;;;;;7.93;7.13;;;;;;;19.45;56.60;101799.25;6116063;28;20321;-50
2021/07/23 05:49:36;;;;;;;8.88;5.32;;;;;;;19.50;55.95;101801.72;6117907;28;20606;-55
2021/07/23 05:52:56;;;;;;;8.75;7.95;;;;;;;19.51;56.38;101797.31;6115180;28;20235;-50
2021/07/23 05:56:18;;;;;;;5.97;4.45;;;;;;;19.66;55.91;101804.78;6125892;28;20235;-51
2021/07/23 05:59:40;;;;;;;3.85;3.45;;;;;;;19.60;55.43;101799.66;6121023;28;20248;-55
2021/07/23 06:03:04;;;;;;;6.43;4.78;;;;;;;19.88;54.70;101798.84;6129305;28;20634;-50
2021/07/23 06:06:25;;;;;;;4.10;3.50;;;;;;;19.52;56.01;101793.75;6117803;28;20246;-49
2021/07/23 06:09:46;;;;;;;5.55;4.85;;;;;;;19.73;55.26;101803.69;6117494;28;20224;-53
2021/07/23 06:13:07;;;;;;;4.45;4.05;;;;;;;19.53;55.93;101800.78;6124598;28;20330;-53
2021/07/23 06:16:29;;;;;;;4.05;3.10;;;;;;;19.41;55.84;101810.81;6123049;28;20238;-54
2021/07/23 06:19:50;;;;;;;4.50;3.40;;;;;;;19.50;55.42;101811.44;6125086;28;20239;-54
2021/07/23 06:23:11;;;;;;;3.78;3.38;;;;;;;19.62;55.46;101809.28;6116486;28;20242;-53
2021/07/23 06:26:37;;;;;;;5.35;3.80;;;;;;;19.60;55.21;101807.59;6128019;28;20263;-53
2021/07/23 06:29:57;;;;;;;5.00;3.35;;;;;;;19.37;55.83;101811.81;6112010;28;20236;-50
2021/07/23 06:33:19;;;;;;;4.18;3.65;;;;;;;19.30;56.29;101810.25;6114945;28;20235;-51
2021/07/23 06:36:41;;;;;;;3.78;3.35;;;;;;;19.23;56.44;101808.69;6116373;28;20318;-48
2021/07/23 06:40:02;;;;;;;7.57;4.07;;;;;;;19.53;55.51;101806.94;6115380;28;20482;-48
2021/07/23 06:43:24;;;;;;;4.13;3.72;;;;;;;19.84;54.33;101806.84;6120368;28;20235;-50
2021/07/23 06:46:46;;;;;;;4.82;3.50;;;;;;;19.69;54.70;101812.59;6120505;28;20235;-48
2021/07/23 06:50:09;;;;;;;4.68;3.90;;;;;;;20.08;53.29;101809.59;6107774;28;20501;-48
2021/07/23 06:53:29;;;;;;;7.10;4.78;;;;;;;19.97;53.61;101806.47;6123371;28;20243;-53
2021/07/23 06:56:52;;;;;;;4.38;3.95;;;;;;;19.89;53.37;101813.75;6111430;28;20236;-49
2021/07/23 07:00:14;;;;;;;3.55;3.25;;;;;;;20.25;54.04;101809.91;6119745;28;20244;-52
2021/07/23 07:03:36;;;;;;;4.22;3.60;;;;;;;20.56;51.94;101815.94;6117984;28;20236;-53
2021/07/23 07:06:59;;;;;;;5.75;4.53;;;;;;;20.43;52.09;101818.13;6115674;28;20235;-52
2021/07/23 07:10:20;;;;;;;5.18;4.32;;;;;;;20.37;52.85;101811.25;6112174;28;20236;-49
2021/07/23 07:13:41;;;;;;;4.35;3.95;;;;;;;20.46;52.51;101815.38;6117311;28;20753;-53
2021/07/23 07:17:03;;;;;;;5.60;4.65;;;;;;;20.25;52.53;101820.47;6117897;28;20235;-52
2021/07/23 07:20:24;;;;;;;4.50;4.10;;;;;;;20.50;51.69;101824.94;6117955;28;20551;-54
2021/07/23 07:23:46;;;;;;;6.38;4.80;;;;;;;20.51;51.65;101823.16;6113808;28;20239;-53
2021/07/23 07:27:07;;;;;;;3.78;3.40;;;;;;;20.73;51.80;101820.66;6111258;28;20231;-54
2021/07/23 07:30:28;;;;;;;4.55;3.97;;;;;;;21.30;50.34;101818.56;6112878;28;20275;-52
2021/07/23 07:33:49;;;;;;;6.28;4.30;;;;;;;21.25;49.71;101826.69;6118454;28;20267;-53
2021/07/23 07:37:10;;;;;;;5.03;3.90;;;;;;;20.63;51.24;101834.22;6118823;28;20657;-49
2021/07/23 07:40:32;;;;;;;4.22;3.45;;;;;;;20.68;51.71;101830.53;6118887;28;20232;-50
2021/07/23 07:43:54;;;;;;;4.53;4.10;;;;;;;21.00;51.17;101821.44;6110759;28;20848;-50
2021/07/23 07:47:15;;;;;;;5.38;3.67;;;;;;;21.13;50.04;101832.44;6120246;28;20227;-51
2021/07/23 07:50:36;;;;;;;4.70;4.30;;;;;;;21.22;49.97;101832.94;6113459;28;20239;-47
2021/07/23 07:53:56;;;;;;;5.38;4.97;;;;;;;21.25;49.87;101826.69;6117026;28;20633;-52
2021/07/23 07:57:19;;;;;;;6.70;6.10;;;;;;;20.90;50.19;101826.22;6119284;28;20239;-50
2021/07/23 08:00:40;;;;;;;5.28;4.47;;;;;;;20.59;50.63;101829.97;6113922;28;20239;-55
2021/07/23 08:04:01;;;;;;;7.28;5.05;;;;;;;20.90;50.52;101828.88;6114049;28;20335;-55
2021/07/23 08:07:28;;;;;;;5.82;5.30;;;;;;;21.07;49.98;101816.78;6114612;28;20231;-50
2021/07/23 08:10:49;;;;;;;5.32;3.95;;;;;;;21.02;50.41;101820.47;6113001;28;20306;-55
2021/07/23 08:14:12;;;;;;;6.10;5.60;;;;;;;21.16;49.88;101816.44;6114485;28;20311;-51
2021/07/23 08:17:33;;;;;;;7.10;6.50;;;;;;;21.14;50.18;101827.09;6116559;28;20634;-53
2021/07/23 08:20:54;;;;;;;6.07;5.47;;;;;;;20.94;50.35;101816.38;6113055;28;20236;-52
2021/07/23 08:24:17;;;;;;;8.00;7.32;;;;;;;21.05;50.37;101814.19;6114901;28;20653;-51
2021/07/23 08:27:38;;;;;;;6.80;6.10;;;;;;;21.09;50.63;101812.28;6108805;28;22449;-52
2021/07/23 08:31:01;;;;;;;4.85;4.32;;;;;;;21.29;49.77;101804.47;6112644;28;20263;-50
2021/07/23 08:34:22;;;;;;;4.63;4.22;;;;;;;20.95;50.17;101805.72;6114496;28;20318;-52
2021/07/23 08:37:42;;;;;;;4.75;3.97;;;;;;;20.98;50.07;101800.31;6113535;28;20668;-53
2021/07/23 08:41:04;;;;;;;5.25;3.40;;;;;;;21.05;49.68;101811.53;6111308;28;20235;-54
2021/07/23 08:44:27;;;;;;;5.32;3.85;;;;;;;21.42;48.90;101805.72;6111369;28;20256;-53
2021/07/23 08:47:49;;;;;;;3.55;3.17;;;;;;;21.40;48.77;101810.22;6115756;28;20740;-55
2021/07/23 08:51:10;;;;;;;4.05;3.75;;;;;;;21.66;48.78;101808.34;6107974;28;20239;-55
2021/07/23 08:54:32;;;;;;;3.28;3.03;;;;;;;21.50;49.25;101810.75;6117541;28;20232;-49
2021/07/23 08:57:53;;;;;;;3.35;3.05;;;;;;;21.55;49.46;101807.91;6117030;28;20546;-51
2021/07/23 09:01:14;;;;;;;3.88;3.40;;;;;;;20.98;51.21;101818.00;6117711;28;20243;-51
2021/07/23 09:04:38;;;;;;;4.80;3.28;;;;;;;21.37;50.57;101812.13;6115051;28;20227;-49
2021/07/23 09:08:00;;;;;;;3.53;3.22;;;;;;;20.79;52.31;101817.78;6117437;28;20238;-48
2021/07/23 09:11:30;;;;;;;3.88;3.47;;;;;;;21.23;51.53;101818.81;6116581;28;20240;-48
2021/07/23 09:14:51;;;;;;;4.38;3.30;;;;;;;21.37;51.16;101820.91;6117749;28;20288;-53
2021/07/23 09:18:21;;;;;;;4.63;3.72;;;;;;;21.39;50.74;101816.41;6115331;28;20235;-53
2021/07/23 09:21:45;;;;;;;4.15;3.15;;;;;;;21.64;50.19;101815.50;6118143;28;20239;-55
2021/07/23 09:25:07;;;;;;;4.75;3.85;;;;;;;21.47;49.73;101820.59;6119923;28;20223;-50
2021/07/23 09:28:30;;;;;;;3.85;3.55;;;;;;;21.64;49.97;101812.84;6117500;28;20248;-51
2021/07/23 09:32:06;;;;;;;5.63;3.40;;;;;;;21.99;48.67;101805.25;6120906;28;20706;-52
2021/07/23 09:35:27;;;;;;;3.97;3.17;;;;;;;22.40;47.46;101797.38;6123529;28;20576;-51
2021/07/23 09:38:49;;;;;;;4.68;4.28;;;;;;;22.42;47.42;101800.81;6119663;28;20259;-52
2021/07/23 09:42:11;;;;;;;5.20;4.75;;;;;;;22.35;46.84;101797.56;6115009;28;20701;-51
2021/07/23 09:45:33;;;;;;;6.38;4.90;;;;;;;22.48;46.31;101799.69;6118255;28;20240;-51
2021/07/23 09:48:56;;;;;;;5.82;5.32;;;;;;;22.11;47.05;101790.63;6109257;28;20240;-49
2021/07/23 09:52:18;;;;;;;5.38;4.97;;;;;;;22.21;47.43;101798.09;6093594;28;20258;-53
2021/07/23 09:55:44;;;;;;;6.57;5.95;;;;;;;22.64;45.87;101786.59;6119261;28;20235;-50
2021/07/23 09:59:10;;;;;;;5.63;4.30;;;;;;;22.98;45.26;101789.44;6122095;28;20629;-53
2021/07/23 10:02:32;;;;;;;5.35;4.95;;;;;;;23.06;45.50;101786.47;6116706;28;20244;-50
2021/07/23 10:05:59;;;;;;;5.78;4.32;;;;;;;22.55;45.89;101786.09;6118488;28;20236;-53
2021/07/23 10:09:26;;;;;;;4.78;4.38;;;;;;;22.58;46.30;101780.63;6114528;28;20240;-52
2021/07/23 10:12:50;;;;;;;5.07;4.72;;;;;;;22.77;46.24;101777.16;6115222;28;20239;-49
2021/07/23 10:16:12;;;;;;;5.05;4.55;;;;;;;22.83;46.02;101779.53;6121779;28;20617;-52
2021/07/23 10:19:34;;;;;;;4.80;4.35;;;;;;;22.29;46.22;101783.69;6119817;28;20240;-52
2021/07/23 10:22:56;;;;;;;6.65;6.03;;;;;;;22.76;45.84;101778.97;6114920;28;20239;-52
2021/07/23 10:26:18;;;;;;;6.88;6.28;;;;;;;22.61;45.93;101777.84;6116031;28;20235;-49
2021/07/23 10:29:44;;;;;;;4.63;4.22;;;;;;;22.96;44.80;101764.75;6118940;28;20565;-50
2021/07/23 10:33:06;;;;;;;5.13;4.63;;;;;;;22.67;45.59;101773.19;6114176;28;20240;-50
2021/07/23 10:36:37;;;;;;;4.20;3.90;;;;;;;22.25;46.60;101774.16;6118570;28;20235;-50
2021/07/23 10:40:13;;;;;;;4.35;3.70;;;;;;;22.46;46.16;101770.56;6122832;28;20580;-50
2021/07/23 10:43:36;;;;;;;4.35;3.83;;;;;;;22.29;46.62;101773.09;6120252;28;20617;-54
2021/07/23 10:46:59;;;;;;;4.07;3.78;;;;;;;21.99;47.01;101768.97;6116603;28;20703;-55
2021/07/23 10:50:49;;;;;;;5.75;4.05;;;;;;;22.40;46.44;101776.13;6119381;28;20227;-54
2021/07/23 10:54:10;;;;;;;3.35;3.05;;;;;;;22.38;45.59;101767.38;6126617;28;20231;-49
2021/07/23 10:57:31;;;;;;;4.35;3.95;;;;;;;22.79;45.51;101765.53;6120921;28;20243;-52
2021/07/23 11:00:53;;;;;;;3.85;3.47;;;;;;;22.78;45.12;101765.63;6127127;28;20247;-51
2021/07/23 11:04:20;;;;;;;5.25;3.83;;;;;;;22.17;46.80;101766.47;6123045;28;20231;-48
2021/07/23 11:07:40;;;;;;;5.22;4.72;;;;;;;20.91;50.27;101767.03;6122697;28;20259;-51
2021/07/23 11:11:01;;;;;;;3.30;3.05;;;;;;;21.69;48.26;101763.16;6117893;28;20240;-49
2021/07/23 11:14:22;;;;;;;3.15;2.85;;;;;;;23.02;45.20;101757.44;6123412;28;20602;-50
2021/07/23 11:17:48;;;;;;;3.75;3.30;;;;;;;23.15;44.53;101758.63;6126157;28;20904;-50
2021/07/23 11:21:10;;;;;;;7.03;3.92;;;;;;;23.03;44.37;101753.88;6127005;28;20243;-50
2021/07/23 11:24:35;;;;;;;4.25;3.55;;;;;;;23.10;44.29;101755.31;6124181;28;20239;-52
2021/07/23 11:28:01;;;;;;;4.22;3.67;;;;;;;23.52;43.99;101762.19;6122410;28;20232;-51
2021/07/23 11:31:31;;;;;;;4.25;2.97;;;;;;;23.64;43.41;101756.25;6123974;28;20310;-51
2021/07/23 11:35:03;;;;;;;4.30;4.00;;;;;;;23.29;44.33;101750.00;6121899;28;20239;-53
2021/07/23 11:38:25;;;;;;;4.00;3.70;;;;;;;23.30;44.13;101752.59;6101028;28;20231;-50
2021/07/23 11:42:00;;;;;;;6.07;3.78;;;;;;;22.58;46.01;101754.06;6123027;28;20267;-52
2021/07/23 11:45:22;;;;;;;4.93;3.88;;;;;;;22.94;45.43;101745.38;6129718;28;20235;-52
2021/07/23 11:48:50;;;;;;;3.28;2.70;;;;;;;23.40;44.24;101742.38;6129502;28;20235;-50
2021/07/23 11:52:10;;;;;;;6.20;5.03;;;;;;;22.70;45.28;101751.81;6121107;28;20516;-52
2021/07/23 11:55:40;;;;;;;4.45;4.15;;;;;;;22.53;46.39;101750.78;6118562;28;20239;-50
2021/07/23 11:59:04;;;;;;;3.70;3.40;;;;;;;22.42;46.57;101748.59;6116812;28;20226;-53
2021/07/23 12:02:26;;;;;;;3.72;3.28;;;;;;;22.84;45.95;101736.13;6121335;28;20236;-53
2021/07/23 12:05:48;;;;;;;5.57;3.97;;;;;;;22.77;46.17;101738.19;6125457;28;20227;-50
2021/07/23 12:09:12;;;;;;;5.10;4.07;;;;;;;22.47;47.34;101744.88;6126364;28;20637;-50
2021/07/23 12:12:35;;;;;;;4.43;3.25;;;;;;;22.60;47.05;101744.28;6119660;28;20240;-52
2021/07/23 12:15:57;;;;;;;4.97;4.47;;;;;;;23.04;45.84;101742.34;6120815;28;20337;-53
2021/07/23 12:19:19;;;;;;;4.22;3.70;;;;;;;22.92;46.64;101735.78;6124831;28;20542;-53
2021/07/23 12:22:40;;;;;;;4.10;3.78;;;;;;;23.17;45.94;101730.19;6123602;28;20231;-55
2021/07/23 12:26:01;;;;;;;3.72;3.42;;;;;;;23.29;45.85;101734.91;6124394;28;20234;-50
2021/07/23 12:29:38;;;;;;;3.88;3.58;;;;;;;23.11;46.05;101725.16;6122379;28;20238;-52
2021/07/23 12:33:10;;;;;;;6.55;3.53;;;;;;;22.96;46.40;101724.06;6125717;28;20227;-49
2021/07/23 12:36:38;;;;;;;4.78;3.65;;;;;;;23.51;45.03;101724.09;6126902;28;20234;-52
2021/07/23 12:40:02;;;;;;;4.75;3.63;;;;;;;23.57;45.24;101717.59;6121991;28;20231;-47
2021/07/23 12:43:23;;;;;;;3.47;3.17;;;;;;;23.87;44.34;101725.91;6138003;28;20243;-53
2021/07/23 12:46:48;;;;;;;3.33;3.03;;;;;;;23.86;43.98;101728.63;6122815;28;20262;-53
2021/07/23 12:50:14;;;;;;;4.10;3.42;;;;;;;23.56;44.48;101726.53;6129372;28;20230;-48
2021/07/23 12:53:35;;;;;;;5.05;4.32;;;;;;;23.89;43.70;101731.16;6131453;28;20239;-51
2021/07/23 12:57:12;;;;;;;4.03;3.25;;;;;;;23.83;44.38;101728.81;6130030;28;20273;-50
2021/07/23 13:00:33;;;;;;;3.90;3.50;;;;;;;23.58;44.52;101720.19;6122585;28;20239;-53
2021/07/23 13:03:55;;;;;;;3.60;3.30;;;;;;;23.60;44.70;101717.47;6124538;28;20284;-49
2021/07/23 13:07:16;;;;;;;4.65;3.40;;;;;;;23.94;44.67;101710.47;6118170;28;20674;-51
2021/07/23 13:10:37;;;;;;;3.38;3.08;;;;;;;23.59;44.82;101710.41;6130557;28;20566;-51
2021/07/23 13:13:58;;;;;;;3.30;3.00;;;;;;;23.57;44.64;101712.28;6128933;28;20314;-53
2021/07/23 13:17:19;;;;;;;3.47;3.10;;;;;;;23.58;44.69;101708.72;6128199;28;20234;-55
2021/07/23 13:20:41;;;;;;;3.33;3.03;;;;;;;23.57;44.73;101713.19;6126865;28;20818;-52
2021/07/23 13:24:03;;;;;;;3.80;3.50;;;;;;;23.55;44.41;101712.41;6127342;28;20235;-52
2021/07/23 13:27:25;;;;;;;3.60;3.30;;;;;;;23.22;45.77;101712.22;6127896;28;20739;-52
2021/07/23 13:30:46;;;;;;;3.72;3.42;;;;;;;23.50;45.09;101716.22;6125826;28;20652;-49
2021/07/23 13:34:07;;;;;;;4.53;4.13;;;;;;;23.06;46.17;101703.28;6126954;28;20318;-56
2021/07/23 13:37:35;;;;;;;3.55;3.25;;;;;;;22.32;47.96;101703.97;6134098;28;20549;-54
2021/07/23 13:40:57;;;;;;;4.47;4.05;;;;;;;22.92;47.17;101702.09;6131696;28;20254;-52
2021/07/23 13:44:18;;;;;;;4.35;3.95;;;;;;;23.18;46.49;101708.84;6120733;28;20243;-53
2021/07/23 13:47:39;;;;;;;4.32;3.38;;;;;;;22.75;47.34;101696.72;6131966;28;20235;-54
2021/07/23 13:51:00;;;;;;;6.63;3.83;;;;;;;22.78;47.62;101701.91;6126456;28;20228;-52
2021/07/23 13:54:22;;;;;;;4.68;4.10;;;;;;;22.92;47.39;101688.81;6126757;28;20961;-52
2021/07/23 13:57:43;;;;;;;4.32;3.85;;;;;;;22.93;47.59;101689.66;6119664;28;20311;-54
2021/07/23 14:01:04;;;;;;;4.88;4.45;;;;;;;22.83;47.50;101686.59;6123702;28;20227;-52
2021/07/23 14:04:26;;;;;;;5.95;3.70;;;;;;;22.67;48.33;101685.59;6125221;28;20239;-52
2021/07/23 14:07:48;;;;;;;4.00;3.60;;;;;;;22.99;47.29;101694.69;6123701;28;20334;-53
2021/07/23 14:11:10;;;;;;;4.03;3.63;;;;;;;22.82;47.97;101687.53;6122617;28;20773;-50
2021/07/23 14:14:31;;;;;;;7.22;3.83;;;;;;;22.66;48.72;101683.84;6115729;28;20243;-51
2021/07/23 14:17:52;;;;;;;3.88;3.58;;;;;;;22.57;48.96;101682.50;6125805;28;20227;-51
2021/07/23 14:21:14;;;;;;;4.90;4.38;;;;;;;22.75;48.32;101680.78;6130310;28;20497;-52
2021/07/23 14:24:34;;;;;;;4.30;3.78;;;;;;;22.86;48.37;101678.50;6131295;28;20239;-50
2021/07/23 14:27:57;;;;;;;5.60;4.03;;;;;;;23.18;47.42;101679.63;6126085;28;20243;-48
2021/07/23 14:31:19;;;;;;;4.13;3.72;;;;;;;23.18;47.80;101679.63;6130107;28;20235;-49
2021/07/23 14:34:40;;;;;;;4.53;4.13;;;;;;;23.34;47.38;101669.13;6126284;28;20315;-54
2021/07/23 14:38:01;;;;;;;4.70;4.18;;;;;;;22.98;48.26;101667.28;6134426;28;20531;-53
2021/07/23 14:41:22;;;;;;;6.95;5.38;;;;;;;22.80;49.12;101662.84;6129326;28;20232;-53
2021/07/23 14:44:44;;;;;;;5.00;4.50;;;;;;;22.98;48.46;101658.44;6127219;28;20624;-51
2021/07/23 14:48:06;;;;;;;5.18;4.57;;;;;;;23.07;48.38;101659.81;6126731;28;20239;-52
2021/07/23 14:51:27;;;;;;;5.40;4.18;;;;;;;22.86;48.23;101659.91;6133624;28;20227;-50
2021/07/23 14:54:48;;;;;;;6.32;4.13;;;;;;;23.16;47.00;101652.28;6130437;28;20240;-52
2021/07/23 14:58:08;;;;;;;5.43;4.03;;;;;;;22.94;48.00;101652.44;6132849;28;20258;-49
2021/07/23 15:01:32;;;;;;;4.30;4.00;;;;;;;23.05;47.11;101648.41;6128732;28;20335;-51
2021/07/23 15:04:55;;;;;;;5.28;3.95;;;;;;;23.09;47.05;101647.31;6126684;28;20321;-52
2021/07/23 15:08:16;;;;;;;3.65;3.28;;;;;;;22.95;47.61;101640.88;6125775;28;20314;-50
2021/07/23 15:11:36;;;;;;;4.97;4.03;;;;;;;22.87;47.53;101640.38;6135455;28;20228;-49
2021/07/23 15:14:59;;;;;;;4.65;4.13;;;;;;;22.90;47.62;101642.88;6129215;28;20239;-53
2021/07/23 15:18:24;;;;;;;4.18;3.35;;;;;;;23.15;46.96;101642.59;6127071;28;20227;-50
2021/07/23 15:21:45;;;;;;;4.18;3.78;;;;;;;22.88;48.12;101634.13;6137874;28;20232;-51
2021/07/23 15:25:07;;;;;;;3.67;3.38;;;;;;;22.94;46.43;101632.97;6134790;28;20259;-51
2021/07/23 15:28:31;;;;;;;9.43;8.65;;;;;;;22.97;46.83;101628.38;6131347;28;20239;-51
2021/07/23 15:31:53;;;;;;;5.88;5.30;;;;;;;22.63;47.62;101628.28;6128210;28;20235;-53
2021/07/23 15:35:16;;;;;;;4.28;3.88;;;;;;;22.85;47.80;101623.66;6122038;28;20235;-52
2021/07/23 15:38:37;;;;;;;5.68;5.18;;;;;;;23.10;46.75;101622.50;6137460;28;20668;-50
2021/07/23 15:41:58;;;;;;;5.88;5.28;;;;;;;22.79;47.87;101619.47;6124492;28;20473;-54
2021/07/23 15:45:18;;;;;;;5.65;5.13;;;;;;;22.98;47.91;101618.63;6130265;28;20223;-51